Time;durP1;ratioP1;P1;durP2;ratioP2;P2;SDS_P1;SDS_P2;PMS_P1;PMS_P2;Temp;Humidity;BMP_temperature;BMP_pressure;BME280_temperature;BME280_humidity;BME280_pressure;Samples;Min_cycle;Max_cycle;Signal;HPM_P1;HPM_P2
2021/03/28 00:00:17;;;;;;;5.72;5.00;;;;;;;5.56;74.67;101295.81;2656097;89;21210;-60
2021/03/28 00:04:26;;;;;;;7.33;5.22;;;;;;;5.47;75.09;101289.60;2653971;89;21678;-61
2021/03/28 00:08:29;;;;;;;5.30;3.33;;;;;;;5.46;75.70;101294.97;2654735;89;21181;-60
2021/03/28 00:12:36;;;;;;;8.98;4.20;;;;;;;5.51;76.20;101303.08;2662150;88;21207;-60
2021/03/28 00:16:46;;;;;;;10.05;4.58;;;;;;;5.63;76.49;101302.13;2665252;89;21210;-61
2021/03/28 00:21:10;;;;;;;6.17;4.25;;;;;;;5.75;76.38;101304.22;2664568;89;21188;-60
2021/03/28 00:25:19;;;;;;;6.62;3.75;;;;;;;5.82;76.41;101304.80;2694008;88;21194;-61
2021/03/28 00:29:23;;;;;;;4.83;2.80;;;;;;;5.92;76.15;101310.52;2647839;89;21212;-61
2021/03/28 00:33:27;;;;;;;4.70;2.92;;;;;;;6.00;75.89;101305.73;2648216;89;21161;-62
2021/03/28 00:37:31;;;;;;;5.35;3.75;;;;;;;6.05;75.60;101301.59;2671460;89;21149;-61
2021/03/28 00:41:56;;;;;;;4.83;3.42;;;;;;;6.04;75.05;101306.01;2669686;89;21225;-61
2021/03/28 00:45:59;;;;;;;4.70;4.22;;;;;;;5.96;75.12;101299.72;2655093;89;21160;-60
2021/03/28 00:50:25;;;;;;;5.25;3.70;;;;;;;5.92;75.16;101313.16;2655033;89;21192;-60
2021/03/28 00:54:56;;;;;;;3.37;3.00;;;;;;;5.79;75.29;101316.80;2655182;89;21619;-61
2021/03/28 00:59:24;;;;;;;7.20;4.45;;;;;;;5.65;75.72;101314.78;2655402;89;21157;-60
2021/03/28 01:04:10;;;;;;;5.83;3.90;;;;;;;5.58;75.99;101311.56;2684024;88;21177;-60
2021/03/28 01:08:33;;;;;;;7.62;5.12;;;;;;;5.48;76.18;101317.70;2645175;89;21187;-61
2021/03/28 01:13:17;;;;;;;5.20;3.95;;;;;;;5.53;76.82;101324.98;2644890;90;21171;-62
2021/03/28 01:17:34;;;;;;;9.55;5.40;;;;;;;5.60;77.00;101326.02;2683983;88;21170;-61
2021/03/28 01:22:09;;;;;;;5.75;4.55;;;;;;;5.70;76.82;101330.83;2683840;88;21174;-60
2021/03/28 01:26:40;;;;;;;5.67;4.00;;;;;;;5.80;76.60;101327.78;2645182;90;22273;-61
2021/03/28 01:30:51;;;;;;;5.97;4.08;;;;;;;5.85;76.40;101325.30;2645328;89;21222;-61
2021/03/28 01:35:14;;;;;;;6.05;3.58;;;;;;;5.92;76.03;101332.97;2644389;90;21195;-61
2021/03/28 01:39:51;;;;;;;3.62;3.30;;;;;;;5.90;75.66;101338.31;2644888;89;21211;-60
2021/03/28 01:44:07;;;;;;;10.40;3.83;;;;;;;5.86;75.55;101342.86;2654693;88;21183;-60
2021/03/28 01:48:36;;;;;;;3.30;2.77;;;;;;;5.83;75.53;101348.77;2661603;88;21629;-61
2021/03/28 01:52:43;;;;;;;6.62;4.40;;;;;;;5.78;75.38;101362.61;2661106;89;21159;-61
2021/03/28 01:57:24;;;;;;;9.28;4.80;;;;;;;5.75;75.38;101358.34;2661537;88;21586;-60
2021/03/28 02:01:47;;;;;;;6.22;4.03;;;;;;;5.71;75.46;101357.62;2661690;89;21211;-60
2021/03/28 02:06:24;;;;;;;11.12;4.83;;;;;;;5.66;75.39;101358.29;2604665;90;21190;-61
2021/03/28 02:11:12;;;;;;;9.85;6.67;;;;;;;5.58;75.40;101354.66;2694038;88;21644;-61
2021/03/28 02:15:41;;;;;;;6.97;4.00;;;;;;;5.55;75.41;101364.04;2693982;88;21219;-60
2021/03/28 02:20:10;;;;;;;7.17;5.28;;;;;;;5.50;75.46;101351.96;2671581;89;21185;-61
2021/03/28 02:24:47;;;;;;;12.73;5.87;;;;;;;5.45;75.58;101361.87;2652577;89;21168;-61
2021/03/28 02:28:55;;;;;;;5.95;3.95;;;;;;;5.40;75.74;101362.05;2659659;89;21218;-61
2021/03/28 02:33:20;;;;;;;8.60;5.17;;;;;;;5.34;76.03;101363.65;2658505;88;21181;-62
2021/03/28 02:37:28;;;;;;;4.22;3.67;;;;;;;5.23;76.42;101367.59;2652197;89;21734;-62
2021/03/28 02:41:56;;;;;;;22.02;4.90;;;;;;;5.11;76.91;101365.00;2655991;89;21205;-61
2021/03/28 02:46:32;;;;;;;8.05;5.65;;;;;;;5.06;77.22;101376.66;2694018;88;21159;-61
2021/03/28 02:51:20;;;;;;;7.72;4.72;;;;;;;5.07;77.38;101370.02;2645911;89;21707;-60
2021/03/28 03:00:56;;;;;;;9.33;6.05;;;;;;;4.96;77.22;101378.38;2997077;77;22926;-59
2021/03/28 03:05:16;;;;;;;9.33;7.20;;;;;;;4.81;77.25;101382.94;2951192;80;21134;-60
2021/03/28 03:09:30;;;;;;;11.50;8.10;;;;;;;4.65;77.78;101391.45;2951051;79;21165;-61
2021/03/28 03:14:10;;;;;;;9.23;5.67;;;;;;;4.56;78.07;101394.45;2951121;80;21614;-60
2021/03/28 03:18:57;;;;;;;10.05;7.10;;;;;;;4.49;78.39;101396.91;2950870;80;21126;-59
2021/03/28 03:23:25;;;;;;;7.22;4.72;;;;;;;4.45;78.62;101394.88;2932784;80;21618;-61
2021/03/28 03:27:50;;;;;;;7.35;4.78;;;;;;;4.46;78.63;101401.86;2942015;79;21133;-60
2021/03/28 03:32:16;;;;;;;7.40;3.60;;;;;;;4.46;78.62;101403.63;2899324;81;21165;-59
2021/03/28 03:36:39;;;;;;;3.67;2.87;;;;;;;4.45;78.45;101403.22;2899355;82;21563;-61
2021/03/28 03:40:53;;;;;;;6.72;3.85;;;;;;;4.42;78.64;101405.50;2899637;82;21122;-59
2021/03/28 03:45:57;;;;;;;7.72;3.47;;;;;;;4.38;78.64;101407.86;2867736;82;21114;-60
2021/03/28 03:50:18;;;;;;;6.80;3.87;;;;;;;4.33;78.72;101419.04;2899219;82;21149;-61
2021/03/28 03:54:43;;;;;;;13.05;4.67;;;;;;;4.25;78.96;101417.56;2899821;81;21142;-61
2021/03/28 03:59:13;;;;;;;7.53;3.47;;;;;;;4.24;79.34;101420.23;2912065;81;21164;-61
2021/03/28 04:03:58;;;;;;;6.58;3.75;;;;;;;4.24;79.49;101426.83;2922706;81;21570;-61
2021/03/28 04:08:26;;;;;;;6.00;3.67;;;;;;;4.24;79.47;101430.33;2922661;81;21105;-61
2021/03/28 04:12:58;;;;;;;6.33;3.10;;;;;;;4.31;79.23;101433.57;2887978;81;21152;-62
2021/03/28 04:17:45;;;;;;;5.45;3.83;;;;;;;4.30;79.01;101446.34;2813796;84;21521;-61
2021/03/28 04:22:02;;;;;;;6.60;5.62;;;;;;;4.28;79.04;101442.91;2813597;84;21644;-62
2021/03/28 04:26:31;;;;;;;6.80;5.22;;;;;;;4.27;78.97;101443.83;2813409;84;21206;-62
2021/03/28 04:30:42;;;;;;;5.08;4.55;;;;;;;4.28;78.94;101448.17;2860582;80;21148;-62
2021/03/28 04:35:19;;;;;;;7.40;3.92;;;;;;;4.28;78.55;101452.12;2851353;83;21543;-62
2021/03/28 04:39:47;;;;;;;4.72;2.85;;;;;;;4.23;77.95;101454.95;2875079;81;21130;-61
2021/03/28 04:44:15;;;;;;;6.20;4.05;;;;;;;4.24;78.10;101460.63;2922392;81;21173;-62
2021/03/28 04:48:58;;;;;;;6.87;2.60;;;;;;;4.27;78.02;101468.85;2922412;81;21159;-61
2021/03/28 04:53:36;;;;;;;3.20;2.90;;;;;;;4.35;77.88;101466.81;2851410;83;21152;-62
2021/03/28 04:58:24;;;;;;;8.80;4.05;;;;;;;4.50;77.90;101479.87;2850566;83;21106;-62
2021/03/28 05:02:58;;;;;;;8.25;4.22;;;;;;;4.60;77.46;101485.66;2851404;83;21161;-61
2021/03/28 05:07:40;;;;;;;8.05;3.62;;;;;;;4.70;77.61;101493.60;2876865;81;21154;-61
2021/03/28 05:12:14;;;;;;;6.83;3.90;;;;;;;5.08;77.73;101489.55;2921725;81;21139;-62
2021/03/28 05:16:48;;;;;;;6.40;3.67;;;;;;;5.47;77.18;101498.09;2922154;81;21460;-62
2021/03/28 05:21:42;;;;;;;5.08;3.02;;;;;;;5.75;76.26;101506.20;2922419;81;21146;-61
2021/03/28 05:26:07;;;;;;;6.15;3.20;;;;;;;6.13;76.42;101506.38;2922059;81;21150;-61
2021/03/28 05:30:54;;;;;;;7.17;3.58;;;;;;;6.87;76.35;101510.56;2922381;80;21200;-62
2021/03/28 05:35:27;;;;;;;8.98;4.37;;;;;;;7.61;74.38;101510.60;2921911;81;21615;-61
2021/03/28 05:40:15;;;;;;;5.67;3.42;;;;;;;8.29;73.32;101519.92;2922288;81;21114;-61
2021/03/28 05:45:14;;;;;;;5.83;4.58;;;;;;;9.05;71.91;101519.50;2922514;81;21190;-62
2021/03/28 05:49:38;;;;;;;7.15;4.03;;;;;;;9.54;68.92;101510.06;2921979;81;21568;-62
2021/03/28 05:54:06;;;;;;;6.40;4.28;;;;;;;9.51;66.58;101523.52;2922385;81;21127;-61
2021/03/28 05:58:51;;;;;;;10.63;3.90;;;;;;;9.52;66.76;101518.59;2927757;80;21161;-62
2021/03/28 06:03:32;;;;;;;6.35;3.83;;;;;;;9.72;66.66;101522.73;2947267;80;21145;-61
2021/03/28 06:08:12;;;;;;;4.55;3.62;;;;;;;9.96;66.33;101534.21;2947349;80;21611;-62
2021/03/28 06:13:03;;;;;;;7.55;3.83;;;;;;;10.22;65.24;101531.78;2996946;77;22883;-61
2021/03/28 06:18:00;;;;;;;;;;;;;;;;;;;;;
2021/03/28 06:22:43;;;;;;;14.73;4.03;;;;;;;10.42;64.10;101529.28;2950385;80;21138;-60
2021/03/28 06:26:51;;;;;;;6.75;3.22;;;;;;;10.25;63.28;101535.58;2951597;79;21161;-61
2021/03/28 06:31:21;;;;;;;6.28;3.80;;;;;;;9.96;63.86;101546.63;2900044;82;21121;-60
2021/03/28 06:36:15;;;;;;;7.92;4.53;;;;;;;9.79;64.63;101548.47;2900254;82;21165;-60
2021/03/28 06:41:14;;;;;;;6.75;4.42;;;;;;;9.84;64.93;101554.40;2899956;82;21129;-61
2021/03/28 06:45:42;;;;;;;9.35;5.05;;;;;;;10.00;65.44;101559.66;2900069;82;21148;-60
2021/03/28 06:50:19;;;;;;;5.22;3.65;;;;;;;9.97;64.62;101564.29;2900313;81;21133;-61
2021/03/28 06:55:03;;;;;;;5.05;3.52;;;;;;;9.92;64.49;101570.36;2898913;82;21151;-61
2021/03/28 06:59:50;;;;;;;14.18;3.87;;;;;;;10.02;64.87;101571.51;2900265;82;21141;-61
2021/03/28 07:04:01;;;;;;;8.70;4.40;;;;;;;10.20;64.83;101572.23;2900042;82;21157;-61
2021/03/28 07:08:18;;;;;;;6.90;4.87;;;;;;;10.43;64.37;101571.35;2900129;82;21163;-60
2021/03/28 07:12:48;;;;;;;7.70;4.40;;;;;;;10.29;62.53;101563.69;2898311;81;21134;-61
2021/03/28 07:17:36;;;;;;;11.53;3.37;;;;;;;10.29;63.71;101565.52;2899966;81;21121;-61
2021/03/28 07:22:01;;;;;;;10.58;3.70;;;;;;;10.43;63.84;101558.05;2899538;82;21149;-60
2021/03/28 07:26:40;;;;;;;8.43;4.10;;;;;;;10.61;62.48;101556.09;2898986;82;21145;-62
2021/03/28 07:31:05;;;;;;;5.45;4.12;;;;;;;10.70;62.26;101559.49;2898889;82;21149;-61
2021/03/28 07:35:36;;;;;;;4.65;2.92;;;;;;;10.70;62.34;101563.94;2899243;82;21093;-61
2021/03/28 07:40:21;;;;;;;9.60;4.42;;;;;;;10.61;62.58;101565.86;2899246;81;21188;-61
2021/03/28 07:45:01;;;;;;;9.68;4.85;;;;;;;10.58;61.84;101562.90;2899028;82;21129;-61
2021/03/28 07:49:37;;;;;;;8.18;4.30;;;;;;;10.51;61.82;101567.73;2898640;82;21622;-61
2021/03/28 07:54:27;;;;;;;8.55;3.67;;;;;;;10.49;62.60;101574.12;2898734;81;21149;-62
2021/03/28 07:58:52;;;;;;;9.10;5.85;;;;;;;10.51;61.47;101576.20;2898168;81;21153;-61
2021/03/28 08:03:31;;;;;;;9.40;4.08;;;;;;;10.65;61.99;101572.70;2898557;82;21149;-62
2021/03/28 08:08:08;;;;;;;10.60;4.78;;;;;;;10.95;62.20;101577.91;2898978;82;21114;-63
2021/03/28 08:13:02;;;;;;;17.65;5.60;;;;;;;11.27;61.65;101584.34;2912001;80;21641;-62
2021/03/28 08:17:53;;;;;;;9.18;5.08;;;;;;;11.36;60.19;101583.35;2914926;81;21152;-62
2021/03/28 08:22:38;;;;;;;8.73;5.80;;;;;;;11.40;59.61;101577.73;2914941;81;21292;-63
2021/03/28 08:27:07;;;;;;;9.73;4.67;;;;;;;11.47;60.54;101574.66;2916730;81;21118;-62
2021/03/28 08:31:35;;;;;;;4.83;3.60;;;;;;;11.68;59.17;101559.09;2917235;81;21145;-62
2021/03/28 08:35:55;;;;;;;6.37;3.52;;;;;;;11.65;58.06;101560.62;2917771;81;21124;-63
2021/03/28 08:40:43;;;;;;;13.62;4.08;;;;;;;11.67;58.95;101563.55;2917277;81;21172;-63
2021/03/28 08:45:14;;;;;;;10.90;4.92;;;;;;;11.82;58.12;101564.36;2867281;83;21121;-63
2021/03/28 08:50:09;;;;;;;12.70;5.28;;;;;;;11.90;56.62;101563.84;2868031;83;21125;-63
2021/03/28 08:54:40;;;;;;;13.53;5.50;;;;;;;11.82;56.95;101562.16;2868156;83;21193;-63
2021/03/28 08:59:03;;;;;;;8.45;4.00;;;;;;;12.08;57.68;101559.11;2868081;83;21184;-63
2021/03/28 09:03:34;;;;;;;6.05;4.33;;;;;;;12.32;56.52;101549.03;2896837;81;21129;-63
2021/03/28 09:08:11;;;;;;;11.22;4.58;;;;;;;12.37;54.78;101559.40;2915765;81;21977;-63
2021/03/28 09:12:40;;;;;;;9.18;4.65;;;;;;;12.38;55.99;101564.64;2872954;81;21138;-63
2021/03/28 09:17:29;;;;;;;9.85;4.95;;;;;;;12.53;55.32;101560.05;2903033;80;21602;-63
2021/03/28 09:21:54;;;;;;;8.90;4.75;;;;;;;12.67;55.58;101567.08;2903952;82;21120;-63
2021/03/28 09:26:39;;;;;;;7.42;3.87;;;;;;;12.90;54.72;101559.73;2904095;81;21163;-63
2021/03/28 09:31:02;;;;;;;9.48;4.65;;;;;;;13.02;53.73;101555.33;2903330;82;21155;-63
2021/03/28 09:35:50;;;;;;;10.35;4.20;;;;;;;13.21;52.88;101551.70;2896154;82;21916;-62
2021/03/28 09:40:19;;;;;;;11.18;4.92;;;;;;;13.13;51.19;101548.71;2896372;82;21102;-64
2021/03/28 09:44:53;;;;;;;12.78;4.90;;;;;;;12.97;51.88;101547.64;2896123;82;21149;-62
2021/03/28 09:49:38;;;;;;;9.60;4.70;;;;;;;12.88;52.25;101546.48;2895926;82;21396;-64
2021/03/28 09:54:01;;;;;;;8.10;4.12;;;;;;;12.97;52.51;101550.31;2896157;82;21130;-63
2021/03/28 09:58:37;;;;;;;13.70;4.37;;;;;;;13.07;52.03;101549.16;2895254;82;21154;-63
2021/03/28 10:03:18;;;;;;;6.00;4.45;;;;;;;13.22;53.13;101547.19;2800573;83;21176;-62
2021/03/28 10:07:47;;;;;;;5.00;3.52;;;;;;;13.39;51.86;101560.66;2793757;85;21622;-63
2021/03/28 10:12:01;;;;;;;7.70;4.35;;;;;;;13.44;50.96;101553.19;2793950;85;21212;-64
2021/03/28 10:17:00;;;;;;;9.58;3.90;;;;;;;13.25;51.11;101566.53;2793948;84;21586;-62
2021/03/28 10:21:45;;;;;;;7.62;3.87;;;;;;;13.29;50.88;101557.31;2793669;84;21145;-65
2021/03/28 10:26:10;;;;;;;8.18;4.50;;;;;;;13.46;51.89;101552.59;2794151;84;21221;-62
2021/03/28 10:30:36;;;;;;;11.70;5.28;;;;;;;13.62;53.02;101552.78;2765856;84;21169;-62
2021/03/28 10:35:04;;;;;;;7.40;3.90;;;;;;;13.70;51.83;101543.22;2792667;85;21156;-61
2021/03/28 10:39:34;;;;;;;9.18;3.15;;;;;;;13.78;49.78;101543.98;2773801;85;21192;-61
2021/03/28 10:44:00;;;;;;;7.33;3.30;;;;;;;13.71;48.02;101534.70;2801623;85;21164;-65
2021/03/28 10:48:38;;;;;;;9.98;4.17;;;;;;;13.64;49.20;101530.80;2753591;86;21133;-62
2021/03/28 10:53:15;;;;;;;6.25;3.70;;;;;;;13.70;48.06;101527.18;2801527;85;21184;-61
2021/03/28 10:57:43;;;;;;;7.78;2.65;;;;;;;13.68;47.32;101528.25;2773767;85;21180;-65
2021/03/28 11:02:28;;;;;;;7.50;2.90;;;;;;;13.66;49.01;101530.20;2793736;84;21153;-62
2021/03/28 11:06:55;;;;;;;8.55;4.65;;;;;;;13.76;47.62;101524.53;2762259;85;21161;-63
2021/03/28 11:11:18;;;;;;;;;;;;;;;13.94;48.44;101532.97;2764268;85;21153;-62
2021/03/28 11:15:42;;;;;;;11.78;4.05;;;;;;;14.07;47.29;101531.53;2762025;85;20159;-62
2021/03/28 11:20:12;;;;;;;10.00;3.22;;;;;;;14.08;46.81;101527.05;2762091;85;21173;-63
2021/03/28 11:24:23;;;;;;;12.68;3.72;;;;;;;14.23;46.66;101539.72;2745521;84;21149;-62
2021/03/28 11:29:24;;;;;;;9.48;3.52;;;;;;;14.09;47.92;101548.31;2799703;84;21160;-63
2021/03/28 11:33:36;;;;;;;6.28;3.72;;;;;;;13.97;48.52;101534.56;2792672;85;21541;-62
2021/03/28 11:38:19;;;;;;;9.08;3.90;;;;;;;13.64;47.85;101529.46;2802310;84;21144;-62
2021/03/28 11:42:26;;;;;;;11.05;4.28;;;;;;;13.50;47.02;101538.52;2758930;86;21232;-61
2021/03/28 11:46:35;;;;;;;7.55;4.03;;;;;;;13.36;47.17;101530.12;2759239;85;21180;-61
2021/03/28 11:50:42;;;;;;;6.17;3.77;;;;;;;13.32;48.06;101529.53;2697527;87;21670;-61
2021/03/28 11:55:05;;;;;;;8.50;4.65;;;;;;;13.35;47.89;101520.41;2739415;86;21174;-62
2021/03/28 11:59:34;;;;;;;7.55;4.80;;;;;;;13.47;47.93;101516.03;2738350;84;21518;-61
2021/03/28 12:03:41;;;;;;;10.88;4.03;;;;;;;13.41;47.32;101523.48;2757851;86;21141;-64
2021/03/28 12:07:46;;;;;;;5.33;4.15;;;;;;;13.24;48.23;101523.41;2727600;87;21170;-61
2021/03/28 12:11:51;;;;;;;6.97;4.97;;;;;;;13.13;48.54;101524.67;2702761;87;21662;-61
2021/03/28 12:16:04;;;;;;;7.30;5.70;;;;;;;13.13;50.12;101526.00;2680083;88;21591;-64
2021/03/28 12:20:17;;;;;;;7.83;4.60;;;;;;;13.24;50.57;101523.41;2679860;88;21149;-62
2021/03/28 12:24:25;;;;;;;7.25;4.33;;;;;;;13.38;50.31;101518.88;2677331;88;21163;-61
2021/03/28 12:28:51;;;;;;;5.83;4.10;;;;;;;13.55;50.41;101512.28;2679646;88;21199;-64
2021/03/28 12:33:16;;;;;;;7.78;4.83;;;;;;;13.63;48.60;101510.38;2614062;90;22340;-62
2021/03/28 12:37:28;;;;;;;6.92;3.70;;;;;;;13.74;49.47;101505.05;2997693;77;22953;-60
2021/03/28 12:41:34;;;;;;;10.65;4.78;;;;;;;13.83;49.92;101495.00;2951782;80;21599;-62
2021/03/28 12:45:41;;;;;;;10.70;4.55;;;;;;;14.05;48.06;101489.33;2951942;80;21145;-62
2021/03/28 12:49:51;;;;;;;6.53;4.50;;;;;;;14.19;48.78;101491.42;2952306;80;21118;-61
2021/03/28 12:53:54;;;;;;;7.00;4.25;;;;;;;14.41;48.21;101483.41;2951861;79;21141;-60
2021/03/28 12:58:13;;;;;;;8.68;4.97;;;;;;;14.59;47.16;101488.27;2951792;80;21172;-61
2021/03/28 13:02:36;;;;;;;4.97;4.12;;;;;;;14.67;47.23;101485.82;2931366;80;21167;-60
2021/03/28 13:06:51;;;;;;;4.58;3.45;;;;;;;14.68;47.33;101474.64;2900928;82;21180;-60
2021/03/28 13:11:01;;;;;;;7.47;4.20;;;;;;;14.70;46.19;101466.82;2901122;82;21167;-61
2021/03/28 13:15:26;;;;;;;5.62;2.87;;;;;;;14.73;45.10;101464.90;2888308;80;21173;-60
2021/03/28 13:19:36;;;;;;;7.12;3.75;;;;;;;14.70;45.34;101460.13;2951970;79;21145;-60
2021/03/28 13:23:51;;;;;;;6.37;3.33;;;;;;;14.71;45.41;101451.14;2952173;80;21176;-61
2021/03/28 13:28:21;;;;;;;4.83;3.65;;;;;;;14.50;43.69;101455.53;2923027;80;21170;-61
2021/03/28 13:32:30;;;;;;;4.17;3.15;;;;;;;14.59;46.01;101448.11;2874988;82;21175;-60
2021/03/28 13:36:39;;;;;;;6.50;2.92;;;;;;;14.69;45.35;101441.02;2916782;81;21148;-61
2021/03/28 13:40:56;;;;;;;3.98;3.55;;;;;;;14.58;44.18;101450.42;2924185;81;21153;-61
2021/03/28 13:45:04;;;;;;;8.40;3.95;;;;;;;14.45;45.07;101452.38;2923996;81;21156;-60
2021/03/28 13:49:07;;;;;;;7.87;4.05;;;;;;;14.51;45.48;101454.55;2922938;81;21610;-60
2021/03/28 13:53:27;;;;;;;6.25;3.10;;;;;;;14.57;45.75;101442.86;2923343;81;21172;-61
2021/03/28 13:57:34;;;;;;;6.55;3.65;;;;;;;14.52;46.45;101434.36;2923088;81;21148;-61
2021/03/28 14:01:45;;;;;;;8.10;3.58;;;;;;;14.38;46.94;101443.50;2923481;81;21140;-60
2021/03/28 14:05:48;;;;;;;4.78;3.22;;;;;;;14.21;45.90;101438.64;2923197;81;21156;-61
2021/03/28 14:10:33;;;;;;;4.25;3.50;;;;;;;14.02;47.26;101441.89;2897540;81;21517;-61
2021/03/28 14:14:40;;;;;;;4.67;2.85;;;;;;;13.94;48.75;101444.70;2922499;81;21097;-61
2021/03/28 14:18:48;;;;;;;5.60;3.42;;;;;;;13.85;47.70;101446.26;2922877;81;21129;-60
2021/03/28 14:22:56;;;;;;;6.70;3.58;;;;;;;13.98;49.59;101446.66;2922864;81;21141;-61
2021/03/28 14:27:17;;;;;;;4.87;3.52;;;;;;;14.19;46.59;101436.58;2923316;81;21124;-60
2021/03/28 14:31:40;;;;;;;6.85;4.20;;;;;;;14.23;46.20;101442.05;2922651;81;21138;-61
2021/03/28 14:36:10;;;;;;;7.00;3.83;;;;;;;14.06;47.63;101433.52;2912975;81;21233;-61
2021/03/28 14:40:25;;;;;;;6.50;3.47;;;;;;;14.12;48.03;101438.38;2899384;80;21133;-60
2021/03/28 14:45:15;;;;;;;6.37;3.62;;;;;;;14.18;48.92;101440.22;2899689;82;21176;-61
2021/03/28 14:49:38;;;;;;;5.97;3.75;;;;;;;14.20;48.29;101429.75;2997743;77;22674;-60
2021/03/28 14:54:05;;;;;;;7.28;4.10;;;;;;;14.31;49.41;101420.02;2951960;80;21153;-60
2021/03/28 14:58:39;;;;;;;20.20;6.33;;;;;;;14.48;47.49;101430.23;2951864;80;21157;-61
2021/03/28 15:03:16;;;;;;;4.97;4.30;;;;;;;14.39;47.40;101422.45;2932414;80;21138;-61
2021/03/28 15:07:47;;;;;;;2.95;2.75;;;;;;;14.09;47.48;101428.42;2860482;80;21146;-61
2021/03/28 15:11:55;;;;;;;4.95;3.80;;;;;;;14.09;48.07;101427.09;2843352;83;21290;-62
2021/03/28 15:16:44;;;;;;;9.23;4.17;;;;;;;14.20;47.46;101423.56;2843353;83;21122;-61
2021/03/28 15:21:07;;;;;;;6.87;5.00;;;;;;;14.20;48.32;101420.88;2862398;83;21746;-62
2021/03/28 15:25:18;;;;;;;10.63;4.47;;;;;;;14.21;50.07;101417.23;2862578;83;21537;-61
2021/03/28 15:29:31;;;;;;;8.18;4.60;;;;;;;14.31;49.23;101406.14;2833959;83;21612;-61
2021/03/28 15:34:04;;;;;;;7.53;5.62;;;;;;;14.31;48.17;101402.13;2782413;84;21571;-61
2021/03/28 15:38:32;;;;;;;10.18;5.47;;;;;;;14.16;49.82;101413.58;2769655;86;21148;-61
2021/03/28 15:43:07;;;;;;;7.35;4.53;;;;;;;14.03;50.17;101412.36;2851010;83;21153;-61
2021/03/28 15:47:47;;;;;;;7.58;5.35;;;;;;;13.94;50.58;101411.73;2850836;83;21205;-61
2021/03/28 15:52:07;;;;;;;7.33;4.78;;;;;;;13.85;51.37;101407.48;2806002;84;21155;-62
2021/03/28 15:56:35;;;;;;;7.55;5.45;;;;;;;13.77;51.03;101411.25;2806122;84;21158;-61
2021/03/28 16:01:03;;;;;;;5.95;4.40;;;;;;;13.76;51.67;101410.89;2805414;84;21656;-62
2021/03/28 16:05:48;;;;;;;6.20;3.90;;;;;;;13.72;50.89;101412.06;2758643;85;21150;-63
2021/03/28 16:10:13;;;;;;;9.53;5.37;;;;;;;13.55;51.50;101416.05;2725163;85;21236;-63
2021/03/28 16:15:03;;;;;;;5.12;4.55;;;;;;;13.41;52.75;101419.75;2769050;86;21156;-63
2021/03/28 16:19:38;;;;;;;11.68;5.55;;;;;;;13.28;52.70;101422.01;2804864;84;21540;-62
2021/03/28 16:24:14;;;;;;;6.87;4.65;;;;;;;13.24;53.49;101419.67;2768742;86;21145;-62
2021/03/28 16:28:21;;;;;;;;;;;;;;;13.15;53.89;101421.22;2732800;86;21172;-61
2021/03/28 16:33:04;;;;;;;5.50;4.03;;;;;;;12.98;54.40;101412.67;2739393;85;20154;-60
2021/03/28 16:37:22;;;;;;;9.35;4.72;;;;;;;12.86;54.79;101414.91;2713508;87;21595;-61
2021/03/28 16:41:36;;;;;;;10.53;5.00;;;;;;;12.70;54.51;101420.52;2713035;87;21177;-61
2021/03/28 16:45:47;;;;;;;6.35;4.95;;;;;;;12.54;55.07;101413.63;2713988;87;21184;-61
2021/03/28 16:50:27;;;;;;;10.43;5.70;;;;;;;12.40;56.05;101409.75;3058427;76;23454;-60
2021/03/28 16:54:37;;;;;;;6.85;4.22;;;;;;;12.18;56.68;101421.09;3010768;79;21140;-60
2021/03/28 16:58:54;;;;;;;8.08;4.35;;;;;;;11.99;57.61;101413.88;3011505;78;21109;-61
2021/03/28 17:03:20;;;;;;;6.75;5.15;;;;;;;11.83;58.29;101408.78;2980199;79;21178;-61
2021/03/28 17:07:27;;;;;;;5.92;3.70;;;;;;;11.65;58.50;101414.05;2962228;78;21138;-60
2021/03/28 17:11:36;;;;;;;5.87;4.50;;;;;;;11.48;58.67;101409.38;2962080;80;21122;-60
2021/03/28 17:15:46;;;;;;;7.53;4.55;;;;;;;11.37;58.68;101417.23;2984340;77;21594;-60
2021/03/28 17:20:17;;;;;;;7.80;5.55;;;;;;;11.27;59.15;101415.20;3007592;77;21140;-59
2021/03/28 17:24:39;;;;;;;6.90;4.53;;;;;;;11.12;59.60;101413.09;3007458;79;21105;-60
2021/03/28 17:28:44;;;;;;;14.65;4.90;;;;;;;10.88;60.34;101412.89;2985258;79;21594;-59
2021/03/28 17:32:56;;;;;;;8.08;5.92;;;;;;;10.66;60.91;101417.41;2954964;80;21173;-60
2021/03/28 17:37:00;;;;;;;7.72;5.33;;;;;;;10.45;61.30;101419.16;2955023;80;21508;-59
2021/03/28 17:41:05;;;;;;;9.80;7.00;;;;;;;10.23;62.19;101420.97;2955082;80;21493;-58
2021/03/28 17:45:42;;;;;;;12.80;8.18;;;;;;;10.08;62.27;101428.06;2956606;80;21137;-60
2021/03/28 17:49:47;;;;;;;15.30;9.35;;;;;;;10.06;61.92;101425.98;2899323;81;21181;-60
2021/03/28 17:53:55;;;;;;;16.25;9.88;;;;;;;10.01;61.78;101428.91;2900244;82;21666;-60
2021/03/28 17:58:08;;;;;;;16.00;10.15;;;;;;;9.96;61.76;101427.02;2896465;82;21292;-60
2021/03/28 18:02:37;;;;;;;19.12;9.95;;;;;;;9.94;61.54;101432.91;2847374;83;22276;-60
2021/03/28 18:06:41;;;;;;;14.87;8.20;;;;;;;9.89;61.90;101434.99;2899084;82;21133;-60
2021/03/28 18:11:05;;;;;;;10.95;8.85;;;;;;;9.82;62.19;101438.00;2855199;83;21180;-60
2021/03/28 18:15:19;;;;;;;15.78;7.85;;;;;;;9.78;62.49;101436.48;2869175;83;21148;-61
2021/03/28 18:19:34;;;;;;;15.43;9.15;;;;;;;9.78;62.63;101436.48;3056249;77;22190;-60
2021/03/28 18:23:39;;;;;;;;;;;;;;;9.70;62.76;101437.44;3008910;79;21157;-60
2021/03/28 18:27:46;;;;;;;19.65;11.12;;;;;;;9.66;63.14;101439.41;3006606;79;20157;-60
2021/03/28 18:31:58;;;;;;;25.02;14.18;;;;;;;9.67;63.29;101443.77;2992773;79;21524;-60
2021/03/28 18:36:36;;;;;;;26.90;19.35;;;;;;;9.75;63.01;101453.95;2865524;82;21050;-60
2021/03/28 18:40:53;;;;;;;45.55;28.75;;;;;;;9.86;62.63;101451.97;2833953;84;21205;-61
2021/03/28 18:44:56;;;;;;;44.17;29.03;;;;;;;9.90;62.47;101449.99;2809330;84;21180;-60
2021/03/28 18:49:23;;;;;;;42.13;27.75;;;;;;;9.82;61.96;101456.60;2809468;84;21176;-61
2021/03/28 18:53:30;;;;;;;24.87;17.07;;;;;;;9.76;62.02;101457.47;2809431;84;21129;-64
2021/03/28 18:57:36;;;;;;;;;;;;;;;9.69;62.09;101457.81;2811706;84;22387;-65
2021/03/28 19:01:47;;;;;;;21.37;18.45;;;;;;;9.60;62.24;101458.38;2784001;84;20150;-64
2021/03/28 19:05:54;;;;;;;28.75;19.65;;;;;;;9.50;62.25;101463.38;2806297;84;21185;-64
2021/03/28 19:10:03;;;;;;;27.30;16.57;;;;;;;9.45;62.25;101466.78;2808095;84;21164;-64
2021/03/28 19:14:22;;;;;;;20.02;15.80;;;;;;;9.40;62.34;101470.16;2809042;84;21201;-65
2021/03/28 19:18:32;;;;;;;26.65;17.70;;;;;;;9.39;62.25;101472.42;2807226;84;21192;-65
2021/03/28 19:22:46;;;;;;;22.48;17.82;;;;;;;9.37;62.33;101479.63;2809251;84;21156;-64
2021/03/28 19:26:50;;;;;;;27.17;18.17;;;;;;;9.37;62.27;101474.32;2808490;84;21182;-64
2021/03/28 19:30:57;;;;;;;24.77;19.60;;;;;;;9.34;62.28;101475.38;2819111;84;21791;-64
2021/03/28 19:35:27;;;;;;;40.75;28.57;;;;;;;9.35;62.13;101476.21;2756986;85;21176;-64
2021/03/28 19:39:30;;;;;;;41.33;31.90;;;;;;;9.33;61.89;101471.47;2779681;84;21168;-64
2021/03/28 19:43:56;;;;;;;45.45;31.00;;;;;;;9.32;61.96;101476.39;2727761;84;21170;-64
2021/03/28 19:47:59;;;;;;;34.63;24.30;;;;;;;9.34;61.99;101469.19;2880744;82;21602;-65
2021/03/28 19:52:12;;;;;;;31.12;22.45;;;;;;;9.29;62.50;101468.99;2881496;82;21124;-64
2021/03/28 19:56:15;;;;;;;46.95;28.32;;;;;;;9.20;62.87;101468.66;2880787;82;21184;-64
2021/03/28 20:00:30;;;;;;;38.80;25.37;;;;;;;9.12;63.18;101465.12;2881028;82;21160;-64
2021/03/28 20:05:29;;;;;;;35.45;24.63;;;;;;;9.00;63.12;101467.52;2880794;82;21152;-64
2021/03/28 20:09:32;;;;;;;30.60;20.70;;;;;;;8.94;63.27;101467.87;2881036;82;21160;-64
2021/03/28 20:13:38;;;;;;;29.35;17.27;;;;;;;8.89;63.72;101467.28;2913946;81;21143;-64
2021/03/28 20:17:41;;;;;;;31.97;17.12;;;;;;;8.84;64.27;101467.52;2919694;81;21126;-64
2021/03/28 20:21:48;;;;;;;26.37;19.17;;;;;;;8.83;64.83;101461.84;2919509;81;21620;-64
2021/03/28 20:26:21;;;;;;;32.05;17.25;;;;;;;8.82;65.07;101457.47;2919798;81;21158;-64
2021/03/28 20:30:25;;;;;;;22.58;16.20;;;;;;;8.84;64.70;101452.93;2843667;82;21164;-64
2021/03/28 20:34:33;;;;;;;30.62;18.87;;;;;;;8.85;64.56;101444.52;2879459;81;21182;-64
2021/03/28 20:38:38;;;;;;;31.48;19.27;;;;;;;8.83;64.43;101451.22;2918720;81;21157;-64